Salt Lake City, UT

11:37 PM MST on February 08, 2016 (GMT -0700)
Christensen Acres | | Change Station
CLOSE
Current Station
Personal Weather Station
Location: Salt Lake City, UT
Elevation: 4236 ft
Nearby Weather Stations

Elev 4236 ft 40.79 °N, 111.93 °W | Updated 7 minutes ago

Partly Cloudy
Partly Cloudy
23.7 °F
Feels Like 24 °F
N
0.0
Wind Variable Wind from ESE

Today
High -- | Low -- °F
--% Chance of Precip.
Yesterday
High -- | Low -- °F
Precip. -- in
Pressure 30.69 in
Visibility 4.0 miles
Clouds Few 21000 ft
Windchill 24 °F
Dew Point 24 °F
Humidity 99%
Rainfall 0.00 in
Snow Depth Not available.
7:30 AM 5:53 PM
New Moon, 1% visible
METAR KSLC 090600Z 27004KT 4SM BR FEW210 M02/M04 A3063 RMK AO2 SLP392 4/001 T10171039 10033 21022 53002
Pressure 30.69 in
Visibility 4.0 miles
Clouds Few 21000 ft
Windchill 24 °F
Dew Point 24 °F
Humidity 99%
Rainfall 0.00 in
Snow Depth Not available.
7:30 AM 5:53 PM
New Moon, 1% visible
METAR KSLC 090600Z 27004KT 4SM BR FEW210 M02/M04 A3063 RMK AO2 SLP392 4/001 T10171039 10033 21022 53002

10-Day Weather Forecast

Almanac

Astronomy

Feb. 08, 2016 Rise Set
Actual Time
Civil Twilight
Nautical Twilight
Astronomical Twilight
Moon
Length of Visible Light
Length of Day
Tomorrow will be .
, % of the Moon is Illuminated

Today's Extremes

State Highs State Lows

Community

WunderPhotos

Upload Photos

1,891,571 photos uploaded!

WunderBlog® & News

Nearby

Air Quality

  Air Quality AQ Index Pollutant
Not available.

Snow Depth

Station Depth Elevation

Earthquake Activity

City Distance Mag. Time & Date
Minimum magnitude displayed is 2.5.

Coastal Water Temperatures

Place Temperature

Stations

Nearby Weather Stations

Station Location Temp. Windchill Dew Point Humidity Wind Precip. Elev Updated Type
                   

Watches & Warnings

There are currently no watches in effect.